sensor_id;sensor_type;location;lat;lon;timestamp;P1;durP1;ratioP1;P2;durP2;ratioP2
5553;SDS011;2800;49.528;8.666;2022-07-23T00:01:34;16.27;;;8.40;;
5553;SDS011;2800;49.528;8.666;2022-07-23T00:04:00;14.20;;;8.87;;
5553;SDS011;2800;49.528;8.666;2022-07-23T00:06:25;10.90;;;8.13;;
5553;SDS011;2800;49.528;8.666;2022-07-23T00:08:51;13.77;;;8.47;;
5553;SDS011;2800;49.528;8.666;2022-07-23T00:11:17;14.63;;;8.17;;
5553;SDS011;2800;49.528;8.666;2022-07-23T00:13:43;16.63;;;9.13;;
5553;SDS011;2800;49.528;8.666;2022-07-23T00:16:09;12.00;;;8.20;;
5553;SDS011;2800;49.528;8.666;2022-07-23T00:18:34;10.93;;;8.57;;
5553;SDS011;2800;49.528;8.666;2022-07-23T00:21:00;11.77;;;8.20;;
5553;SDS011;2800;49.528;8.666;2022-07-23T00:23:25;13.00;;;8.97;;
5553;SDS011;2800;49.528;8.666;2022-07-23T00:25:53;14.47;;;9.30;;
5553;SDS011;2800;49.528;8.666;2022-07-23T00:28:18;13.90;;;10.20;;
5553;SDS011;2800;49.528;8.666;2022-07-23T00:30:44;16.30;;;10.20;;
5553;SDS011;2800;49.528;8.666;2022-07-23T00:33:10;14.10;;;9.50;;
5553;SDS011;2800;49.528;8.666;2022-07-23T00:35:37;16.20;;;8.70;;
5553;SDS011;2800;49.528;8.666;2022-07-23T00:38:05;16.13;;;9.77;;
5553;SDS011;2800;49.528;8.666;2022-07-23T00:40:32;11.40;;;8.93;;
5553;SDS011;2800;49.528;8.666;2022-07-23T00:42:58;12.90;;;8.20;;
5553;SDS011;2800;49.528;8.666;2022-07-23T00:45:24;13.50;;;9.23;;
5553;SDS011;2800;49.528;8.666;2022-07-23T00:47:50;13.97;;;8.90;;
5553;SDS011;2800;49.528;8.666;2022-07-23T00:50:16;14.20;;;9.37;;
5553;SDS011;2800;49.528;8.666;2022-07-23T00:52:42;14.50;;;8.73;;
5553;SDS011;2800;49.528;8.666;2022-07-23T00:55:08;13.00;;;8.90;;
5553;SDS011;2800;49.528;8.666;2022-07-23T00:57:35;15.67;;;9.50;;
5553;SDS011;2800;49.528;8.666;2022-07-23T01:00:02;11.53;;;8.43;;
5553;SDS011;2800;49.528;8.666;2022-07-23T01:02:33;12.97;;;7.77;;
5553;SDS011;2800;49.528;8.666;2022-07-23T01:04:59;13.53;;;8.50;;
5553;SDS011;2800;49.528;8.666;2022-07-23T01:07:25;15.20;;;9.23;;
5553;SDS011;2800;49.528;8.666;2022-07-23T01:09:51;16.70;;;8.97;;
5553;SDS011;2800;49.528;8.666;2022-07-23T01:12:17;12.47;;;8.10;;
5553;SDS011;2800;49.528;8.666;2022-07-23T01:14:43;16.33;;;8.70;;
5553;SDS011;2800;49.528;8.666;2022-07-23T01:17:08;19.97;;;8.87;;
5553;SDS011;2800;49.528;8.666;2022-07-23T01:19:34;13.10;;;8.53;;
5553;SDS011;2800;49.528;8.666;2022-07-23T01:22:01;12.33;;;8.13;;
5553;SDS011;2800;49.528;8.666;2022-07-23T01:24:28;14.33;;;9.43;;
5553;SDS011;2800;49.528;8.666;2022-07-23T01:26:54;13.40;;;8.47;;
5553;SDS011;2800;49.528;8.666;2022-07-23T01:29:20;14.43;;;9.00;;
5553;SDS011;2800;49.528;8.666;2022-07-23T01:31:46;12.80;;;8.60;;
5553;SDS011;2800;49.528;8.666;2022-07-23T01:34:12;17.10;;;8.80;;
5553;SDS011;2800;49.528;8.666;2022-07-23T01:36:38;13.67;;;9.10;;
5553;SDS011;2800;49.528;8.666;2022-07-23T01:39:04;15.97;;;8.80;;
5553;SDS011;2800;49.528;8.666;2022-07-23T01:41:31;15.00;;;8.60;;
5553;SDS011;2800;49.528;8.666;2022-07-23T01:43:56;11.37;;;8.00;;
5553;SDS011;2800;49.528;8.666;2022-07-23T01:46:22;16.33;;;8.87;;
5553;SDS011;2800;49.528;8.666;2022-07-23T01:48:48;14.93;;;8.40;;
5553;SDS011;2800;49.528;8.666;2022-07-23T01:51:14;13.40;;;8.40;;
5553;SDS011;2800;49.528;8.666;2022-07-23T01:53:39;13.97;;;8.10;;
5553;SDS011;2800;49.528;8.666;2022-07-23T01:56:05;14.03;;;8.43;;
5553;SDS011;2800;49.528;8.666;2022-07-23T01:58:31;11.53;;;8.30;;
5553;SDS011;2800;49.528;8.666;2022-07-23T02:00:56;9.53;;;8.30;;
5553;SDS011;2800;49.528;8.666;2022-07-23T02:03:23;9.70;;;7.90;;
5553;SDS011;2800;49.528;8.666;2022-07-23T02:05:48;13.43;;;8.20;;
5553;SDS011;2800;49.528;8.666;2022-07-23T02:08:14;11.50;;;9.37;;
5553;SDS011;2800;49.528;8.666;2022-07-23T02:10:40;10.57;;;8.37;;
5553;SDS011;2800;49.528;8.666;2022-07-23T02:13:05;11.90;;;8.90;;
5553;SDS011;2800;49.528;8.666;2022-07-23T02:15:31;10.63;;;8.10;;
5553;SDS011;2800;49.528;8.666;2022-07-23T02:17:57;12.60;;;7.60;;
5553;SDS011;2800;49.528;8.666;2022-07-23T02:20:22;12.83;;;7.97;;
5553;SDS011;2800;49.528;8.666;2022-07-23T02:22:49;12.00;;;8.27;;
5553;SDS011;2800;49.528;8.666;2022-07-23T02:25:15;16.40;;;7.20;;
5553;SDS011;2800;49.528;8.666;2022-07-23T02:27:40;10.10;;;7.90;;
5553;SDS011;2800;49.528;8.666;2022-07-23T02:30:06;9.30;;;6.97;;
5553;SDS011;2800;49.528;8.666;2022-07-23T02:32:33;11.27;;;7.80;;
5553;SDS011;2800;49.528;8.666;2022-07-23T02:34:59;14.90;;;7.60;;
5553;SDS011;2800;49.528;8.666;2022-07-23T02:37:25;9.33;;;7.07;;
5553;SDS011;2800;49.528;8.666;2022-07-23T02:39:50;12.83;;;8.10;;
5553;SDS011;2800;49.528;8.666;2022-07-23T02:42:16;11.00;;;7.97;;
5553;SDS011;2800;49.528;8.666;2022-07-23T02:44:42;10.47;;;7.60;;
5553;SDS011;2800;49.528;8.666;2022-07-23T02:47:08;10.60;;;6.80;;
5553;SDS011;2800;49.528;8.666;2022-07-23T02:49:33;10.77;;;8.30;;
5553;SDS011;2800;49.528;8.666;2022-07-23T02:51:59;15.83;;;8.63;;
5553;SDS011;2800;49.528;8.666;2022-07-23T02:54:24;12.37;;;8.20;;
5553;SDS011;2800;49.528;8.666;2022-07-23T02:56:50;9.60;;;7.40;;
5553;SDS011;2800;49.528;8.666;2022-07-23T02:59:16;14.17;;;8.10;;
5553;SDS011;2800;49.528;8.666;2022-07-23T03:01:42;17.63;;;8.30;;
5553;SDS011;2800;49.528;8.666;2022-07-23T03:04:07;14.17;;;8.57;;
5553;SDS011;2800;49.528;8.666;2022-07-23T03:06:33;14.50;;;7.87;;
5553;SDS011;2800;49.528;8.666;2022-07-23T03:08:58;12.00;;;8.40;;
5553;SDS011;2800;49.528;8.666;2022-07-23T03:11:24;9.67;;;7.80;;
5553;SDS011;2800;49.528;8.666;2022-07-23T03:13:49;13.23;;;8.37;;
5553;SDS011;2800;49.528;8.666;2022-07-23T03:16:15;11.60;;;7.60;;
5553;SDS011;2800;49.528;8.666;2022-07-23T03:18:40;14.23;;;8.13;;
5553;SDS011;2800;49.528;8.666;2022-07-23T03:21:06;11.60;;;8.30;;
5553;SDS011;2800;49.528;8.666;2022-07-23T03:23:32;10.83;;;8.60;;
5553;SDS011;2800;49.528;8.666;2022-07-23T03:25:57;12.47;;;8.30;;
5553;SDS011;2800;49.528;8.666;2022-07-23T03:28:23;15.50;;;7.80;;
5553;SDS011;2800;49.528;8.666;2022-07-23T03:30:48;15.20;;;7.77;;
5553;SDS011;2800;49.528;8.666;2022-07-23T03:33:15;19.00;;;8.03;;
5553;SDS011;2800;49.528;8.666;2022-07-23T03:35:42;10.40;;;8.00;;
5553;SDS011;2800;49.528;8.666;2022-07-23T03:38:11;17.70;;;9.30;;
5553;SDS011;2800;49.528;8.666;2022-07-23T03:40:36;12.20;;;8.17;;
5553;SDS011;2800;49.528;8.666;2022-07-23T03:43:02;14.80;;;9.07;;
5553;SDS011;2800;49.528;8.666;2022-07-23T03:45:28;11.80;;;8.03;;
5553;SDS011;2800;49.528;8.666;2022-07-23T03:47:53;11.17;;;8.20;;
5553;SDS011;2800;49.528;8.666;2022-07-23T03:50:19;13.10;;;8.53;;
5553;SDS011;2800;49.528;8.666;2022-07-23T03:52:45;16.33;;;8.30;;
5553;SDS011;2800;49.528;8.666;2022-07-23T03:55:10;11.10;;;8.13;;
5553;SDS011;2800;49.528;8.666;2022-07-23T03:57:36;10.43;;;8.17;;
5553;SDS011;2800;49.528;8.666;2022-07-23T04:00:02;11.80;;;7.97;;
5553;SDS011;2800;49.528;8.666;2022-07-23T04:02:30;11.47;;;7.83;;
5553;SDS011;2800;49.528;8.666;2022-07-23T04:04:55;13.13;;;8.30;;
5553;SDS011;2800;49.528;8.666;2022-07-23T04:07:21;10.77;;;8.40;;
5553;SDS011;2800;49.528;8.666;2022-07-23T04:09:47;12.83;;;7.97;;
5553;SDS011;2800;49.528;8.666;2022-07-23T04:12:12;15.00;;;8.53;;
5553;SDS011;2800;49.528;8.666;2022-07-23T04:14:38;11.73;;;8.10;;
5553;SDS011;2800;49.528;8.666;2022-07-23T04:17:04;17.30;;;8.90;;
5553;SDS011;2800;49.528;8.666;2022-07-23T04:19:30;13.97;;;8.50;;
5553;SDS011;2800;49.528;8.666;2022-07-23T04:21:55;13.23;;;8.57;;
5553;SDS011;2800;49.528;8.666;2022-07-23T04:24:21;14.40;;;8.80;;
5553;SDS011;2800;49.528;8.666;2022-07-23T04:26:47;10.27;;;8.40;;
5553;SDS011;2800;49.528;8.666;2022-07-23T04:29:12;15.13;;;8.50;;
5553;SDS011;2800;49.528;8.666;2022-07-23T04:31:38;14.93;;;9.00;;
5553;SDS011;2800;49.528;8.666;2022-07-23T04:34:03;12.53;;;8.87;;
5553;SDS011;2800;49.528;8.666;2022-07-23T04:36:29;12.37;;;8.40;;
5553;SDS011;2800;49.528;8.666;2022-07-23T04:38:55;13.23;;;8.57;;
5553;SDS011;2800;49.528;8.666;2022-07-23T04:41:20;13.60;;;8.13;;
5553;SDS011;2800;49.528;8.666;2022-07-23T04:43:46;13.53;;;8.97;;
5553;SDS011;2800;49.528;8.666;2022-07-23T04:46:11;13.90;;;9.00;;
5553;SDS011;2800;49.528;8.666;2022-07-23T04:48:37;12.23;;;8.70;;
5553;SDS011;2800;49.528;8.666;2022-07-23T04:51:03;13.80;;;8.80;;
5553;SDS011;2800;49.528;8.666;2022-07-23T04:53:29;14.17;;;9.23;;
5553;SDS011;2800;49.528;8.666;2022-07-23T04:55:54;13.73;;;8.83;;
5553;SDS011;2800;49.528;8.666;2022-07-23T04:58:20;13.20;;;9.00;;
5553;SDS011;2800;49.528;8.666;2022-07-23T05:00:46;16.03;;;9.00;;
5553;SDS011;2800;49.528;8.666;2022-07-23T05:03:11;12.30;;;9.20;;
5553;SDS011;2800;49.528;8.666;2022-07-23T05:05:37;15.60;;;9.90;;
5553;SDS011;2800;49.528;8.666;2022-07-23T05:08:03;19.63;;;9.23;;
5553;SDS011;2800;49.528;8.666;2022-07-23T05:10:29;12.83;;;9.97;;
5553;SDS011;2800;49.528;8.666;2022-07-23T05:12:54;15.33;;;10.40;;
5553;SDS011;2800;49.528;8.666;2022-07-23T05:15:20;20.03;;;10.00;;
5553;SDS011;2800;49.528;8.666;2022-07-23T05:17:45;16.17;;;11.30;;
5553;SDS011;2800;49.528;8.666;2022-07-23T05:20:11;16.20;;;10.20;;
5553;SDS011;2800;49.528;8.666;2022-07-23T05:22:38;16.53;;;10.47;;
5553;SDS011;2800;49.528;8.666;2022-07-23T05:25:03;20.83;;;10.60;;
5553;SDS011;2800;49.528;8.666;2022-07-23T05:27:30;16.67;;;10.60;;
5553;SDS011;2800;49.528;8.666;2022-07-23T05:29:55;16.90;;;10.83;;
5553;SDS011;2800;49.528;8.666;2022-07-23T05:32:21;14.67;;;10.40;;
5553;SDS011;2800;49.528;8.666;2022-07-23T05:34:46;13.00;;;9.83;;
5553;SDS011;2800;49.528;8.666;2022-07-23T05:37:12;15.90;;;10.90;;
5553;SDS011;2800;49.528;8.666;2022-07-23T05:39:37;19.20;;;12.27;;
5553;SDS011;2800;49.528;8.666;2022-07-23T05:42:03;15.33;;;11.83;;
5553;SDS011;2800;49.528;8.666;2022-07-23T05:44:29;22.20;;;12.00;;
5553;SDS011;2800;49.528;8.666;2022-07-23T05:46:54;17.47;;;12.57;;
5553;SDS011;2800;49.528;8.666;2022-07-23T05:49:20;21.00;;;12.20;;
5553;SDS011;2800;49.528;8.666;2022-07-23T05:51:45;19.33;;;12.00;;
5553;SDS011;2800;49.528;8.666;2022-07-23T05:54:11;25.20;;;12.13;;
5553;SDS011;2800;49.528;8.666;2022-07-23T05:56:36;16.93;;;12.10;;
5553;SDS011;2800;49.528;8.666;2022-07-23T05:59:02;23.90;;;12.30;;
5553;SDS011;2800;49.528;8.666;2022-07-23T06:01:27;18.47;;;12.37;;
5553;SDS011;2800;49.528;8.666;2022-07-23T06:03:53;16.33;;;11.70;;
5553;SDS011;2800;49.528;8.666;2022-07-23T06:06:18;14.70;;;11.03;;
5553;SDS011;2800;49.528;8.666;2022-07-23T06:08:44;16.43;;;11.50;;
5553;SDS011;2800;49.528;8.666;2022-07-23T06:11:10;18.97;;;11.53;;
5553;SDS011;2800;49.528;8.666;2022-07-23T06:13:36;15.47;;;11.50;;
5553;SDS011;2800;49.528;8.666;2022-07-23T06:16:01;19.70;;;14.97;;
5553;SDS011;2800;49.528;8.666;2022-07-23T06:18:27;16.83;;;11.33;;
5553;SDS011;2800;49.528;8.666;2022-07-23T06:20:53;15.13;;;11.70;;
5553;SDS011;2800;49.528;8.666;2022-07-23T06:23:19;15.13;;;11.63;;
5553;SDS011;2800;49.528;8.666;2022-07-23T06:25:45;14.60;;;11.47;;
5553;SDS011;2800;49.528;8.666;2022-07-23T06:28:10;15.27;;;12.00;;
5553;SDS011;2800;49.528;8.666;2022-07-23T06:30:36;18.13;;;12.50;;
5553;SDS011;2800;49.528;8.666;2022-07-23T06:33:01;21.10;;;12.60;;
5553;SDS011;2800;49.528;8.666;2022-07-23T06:35:27;16.30;;;13.03;;
5553;SDS011;2800;49.528;8.666;2022-07-23T06:37:52;21.77;;;15.70;;
5553;SDS011;2800;49.528;8.666;2022-07-23T06:40:18;22.23;;;13.47;;
5553;SDS011;2800;49.528;8.666;2022-07-23T06:42:43;17.03;;;13.73;;
5553;SDS011;2800;49.528;8.666;2022-07-23T06:45:09;17.97;;;14.10;;
5553;SDS011;2800;49.528;8.666;2022-07-23T06:47:34;17.57;;;13.37;;
5553;SDS011;2800;49.528;8.666;2022-07-23T06:50:00;20.10;;;14.20;;
5553;SDS011;2800;49.528;8.666;2022-07-23T06:52:25;17.37;;;14.03;;
5553;SDS011;2800;49.528;8.666;2022-07-23T06:54:51;20.40;;;14.53;;
5553;SDS011;2800;49.528;8.666;2022-07-23T06:57:17;22.80;;;15.00;;
5553;SDS011;2800;49.528;8.666;2022-07-23T06:59:43;16.93;;;13.90;;
5553;SDS011;2800;49.528;8.666;2022-07-23T07:02:08;17.93;;;13.97;;
5553;SDS011;2800;49.528;8.666;2022-07-23T07:04:34;19.37;;;14.43;;
5553;SDS011;2800;49.528;8.666;2022-07-23T07:07:00;18.47;;;14.10;;
5553;SDS011;2800;49.528;8.666;2022-07-23T07:09:25;17.30;;;14.50;;
5553;SDS011;2800;49.528;8.666;2022-07-23T07:11:51;17.50;;;14.10;;
5553;SDS011;2800;49.528;8.666;2022-07-23T07:14:17;18.00;;;14.60;;
5553;SDS011;2800;49.528;8.666;2022-07-23T07:16:42;19.60;;;14.00;;
5553;SDS011;2800;49.528;8.666;2022-07-23T07:19:08;20.13;;;15.80;;
5553;SDS011;2800;49.528;8.666;2022-07-23T07:21:33;20.97;;;15.77;;
5553;SDS011;2800;49.528;8.666;2022-07-23T07:23:59;19.53;;;14.30;;
5553;SDS011;2800;49.528;8.666;2022-07-23T07:26:25;19.73;;;14.33;;
5553;SDS011;2800;49.528;8.666;2022-07-23T07:28:50;20.10;;;14.00;;
5553;SDS011;2800;49.528;8.666;2022-07-23T07:31:16;19.90;;;14.13;;
5553;SDS011;2800;49.528;8.666;2022-07-23T07:33:42;18.87;;;13.67;;
5553;SDS011;2800;49.528;8.666;2022-07-23T07:36:08;20.10;;;15.23;;
5553;SDS011;2800;49.528;8.666;2022-07-23T07:38:33;20.70;;;15.10;;
5553;SDS011;2800;49.528;8.666;2022-07-23T07:40:59;23.60;;;14.33;;
5553;SDS011;2800;49.528;8.666;2022-07-23T07:43:25;23.43;;;14.47;;
5553;SDS011;2800;49.528;8.666;2022-07-23T07:45:50;24.40;;;14.00;;
5553;SDS011;2800;49.528;8.666;2022-07-23T07:48:16;16.00;;;13.23;;
5553;SDS011;2800;49.528;8.666;2022-07-23T07:50:41;16.90;;;12.93;;
5553;SDS011;2800;49.528;8.666;2022-07-23T07:53:07;17.50;;;13.70;;
5553;SDS011;2800;49.528;8.666;2022-07-23T07:55:33;16.70;;;12.90;;
5553;SDS011;2800;49.528;8.666;2022-07-23T07:57:59;16.83;;;12.40;;
5553;SDS011;2800;49.528;8.666;2022-07-23T08:00:26;15.40;;;11.60;;
5553;SDS011;2800;49.528;8.666;2022-07-23T08:02:52;17.63;;;12.93;;
5553;SDS011;2800;49.528;8.666;2022-07-23T08:05:22;16.90;;;13.07;;
5553;SDS011;2800;49.528;8.666;2022-07-23T08:07:49;21.80;;;14.80;;
5553;SDS011;2800;49.528;8.666;2022-07-23T08:10:15;18.10;;;12.93;;
5553;SDS011;2800;49.528;8.666;2022-07-23T08:12:47;16.00;;;11.43;;
5553;SDS011;2800;49.528;8.666;2022-07-23T08:15:16;15.00;;;11.93;;
5553;SDS011;2800;49.528;8.666;2022-07-23T08:17:43;17.43;;;11.80;;
5553;SDS011;2800;49.528;8.666;2022-07-23T08:20:10;15.30;;;11.60;;
5553;SDS011;2800;49.528;8.666;2022-07-23T08:22:48;15.00;;;12.33;;
5553;SDS011;2800;49.528;8.666;2022-07-23T08:25:20;15.93;;;12.27;;
5553;SDS011;2800;49.528;8.666;2022-07-23T08:27:51;15.77;;;11.77;;
5553;SDS011;2800;49.528;8.666;2022-07-23T08:30:18;16.63;;;12.43;;
5553;SDS011;2800;49.528;8.666;2022-07-23T08:32:57;18.50;;;12.00;;
5553;SDS011;2800;49.528;8.666;2022-07-23T08:35:29;18.30;;;12.67;;
5553;SDS011;2800;49.528;8.666;2022-07-23T08:37:55;16.73;;;12.23;;
5553;SDS011;2800;49.528;8.666;2022-07-23T08:40:21;23.00;;;12.43;;
5553;SDS011;2800;49.528;8.666;2022-07-23T08:42:48;17.27;;;12.40;;
5553;SDS011;2800;49.528;8.666;2022-07-23T08:45:18;19.60;;;12.20;;
5553;SDS011;2800;49.528;8.666;2022-07-23T08:47:53;15.43;;;11.50;;
5553;SDS011;2800;49.528;8.666;2022-07-23T08:50:21;18.07;;;10.83;;
5553;SDS011;2800;49.528;8.666;2022-07-23T08:52:48;13.33;;;11.37;;
5553;SDS011;2800;49.528;8.666;2022-07-23T08:55:18;16.27;;;11.90;;
5553;SDS011;2800;49.528;8.666;2022-07-23T08:57:49;20.20;;;10.20;;
5553;SDS011;2800;49.528;8.666;2022-07-23T09:00:17;16.67;;;10.90;;
5553;SDS011;2800;49.528;8.666;2022-07-23T09:02:44;17.03;;;11.80;;
5553;SDS011;2800;49.528;8.666;2022-07-23T09:05:11;13.90;;;10.17;;
5553;SDS011;2800;49.528;8.666;2022-07-23T09:07:38;14.10;;;10.90;;
5553;SDS011;2800;49.528;8.666;2022-07-23T09:10:36;14.00;;;10.53;;
5553;SDS011;2800;49.528;8.666;2022-07-23T09:13:22;14.40;;;10.60;;
5553;SDS011;2800;49.528;8.666;2022-07-23T09:15:51;14.43;;;11.00;;
5553;SDS011;2800;49.528;8.666;2022-07-23T09:18:18;12.87;;;9.97;;
5553;SDS011;2800;49.528;8.666;2022-07-23T09:20:44;14.33;;;9.40;;
5553;SDS011;2800;49.528;8.666;2022-07-23T09:23:10;14.87;;;9.80;;
5553;SDS011;2800;49.528;8.666;2022-07-23T09:25:36;20.50;;;8.70;;
5553;SDS011;2800;49.528;8.666;2022-07-23T09:28:01;23.20;;;10.77;;
5553;SDS011;2800;49.528;8.666;2022-07-23T09:30:31;12.83;;;9.90;;
5553;SDS011;2800;49.528;8.666;2022-07-23T09:38:12;12.83;;;8.27;;
5553;SDS011;2800;49.528;8.666;2022-07-23T09:40:39;12.63;;;9.10;;
5553;SDS011;2800;49.528;8.666;2022-07-23T09:43:04;26.87;;;10.60;;
5553;SDS011;2800;49.528;8.666;2022-07-23T09:45:30;13.70;;;9.60;;
5553;SDS011;2800;49.528;8.666;2022-07-23T09:48:11;11.63;;;8.57;;
5553;SDS011;2800;49.528;8.666;2022-07-23T09:50:37;10.83;;;7.80;;
5553;SDS011;2800;49.528;8.666;2022-07-23T09:53:03;10.90;;;8.80;;
5553;SDS011;2800;49.528;8.666;2022-07-23T09:55:32;10.70;;;8.70;;
5553;SDS011;2800;49.528;8.666;2022-07-23T09:58:01;11.63;;;8.50;;
5553;SDS011;2800;49.528;8.666;2022-07-23T10:00:28;14.13;;;9.87;;
5553;SDS011;2800;49.528;8.666;2022-07-23T10:02:54;12.10;;;8.77;;
5553;SDS011;2800;49.528;8.666;2022-07-23T10:05:20;13.77;;;8.40;;
5553;SDS011;2800;49.528;8.666;2022-07-23T10:07:46;11.60;;;7.90;;
5553;SDS011;2800;49.528;8.666;2022-07-23T10:10:15;10.70;;;8.17;;
5553;SDS011;2800;49.528;8.666;2022-07-23T10:12:43;11.27;;;8.57;;
5553;SDS011;2800;49.528;8.666;2022-07-23T10:15:09;9.37;;;7.93;;
5553;SDS011;2800;49.528;8.666;2022-07-23T10:17:35;10.73;;;8.07;;
5553;SDS011;2800;49.528;8.666;2022-07-23T10:20:01;12.50;;;8.63;;
5553;SDS011;2800;49.528;8.666;2022-07-23T10:22:29;10.83;;;8.50;;
5553;SDS011;2800;49.528;8.666;2022-07-23T10:31:03;11.53;;;8.97;;
5553;SDS011;2800;49.528;8.666;2022-07-23T10:33:44;12.00;;;8.77;;
5553;SDS011;2800;49.528;8.666;2022-07-23T10:39:05;16.67;;;10.20;;
5553;SDS011;2800;49.528;8.666;2022-07-23T10:41:39;14.83;;;10.30;;
5553;SDS011;2800;49.528;8.666;2022-07-23T10:44:06;14.10;;;10.13;;
5553;SDS011;2800;49.528;8.666;2022-07-23T10:46:56;11.87;;;9.23;;
5553;SDS011;2800;49.528;8.666;2022-07-23T10:49:42;24.90;;;9.07;;
5553;SDS011;2800;49.528;8.666;2022-07-23T10:54:46;12.93;;;8.50;;
5553;SDS011;2800;49.528;8.666;2022-07-23T10:57:13;13.20;;;8.83;;
5553;SDS011;2800;49.528;8.666;2022-07-23T11:02:40;14.23;;;8.83;;
5553;SDS011;2800;49.528;8.666;2022-07-23T11:05:11;11.47;;;8.40;;
5553;SDS011;2800;49.528;8.666;2022-07-23T11:10:32;13.77;;;9.73;;
5553;SDS011;2800;49.528;8.666;2022-07-23T11:26:50;11.13;;;8.90;;
5553;SDS011;2800;49.528;8.666;2022-07-23T11:31:56;15.80;;;11.10;;
5553;SDS011;2800;49.528;8.666;2022-07-23T11:37:04;20.50;;;9.00;;
5553;SDS011;2800;49.528;8.666;2022-07-23T11:39:35;11.90;;;7.80;;
5553;SDS011;2800;49.528;8.666;2022-07-23T11:42:02;21.03;;;8.53;;
5553;SDS011;2800;49.528;8.666;2022-07-23T11:47:03;13.30;;;9.37;;
5553;SDS011;2800;49.528;8.666;2022-07-23T11:49:29;11.67;;;8.77;;
5553;SDS011;2800;49.528;8.666;2022-07-23T11:52:08;10.47;;;8.43;;
5553;SDS011;2800;49.528;8.666;2022-07-23T11:54:51;12.20;;;8.20;;
5553;SDS011;2800;49.528;8.666;2022-07-23T11:57:18;12.20;;;8.70;;
5553;SDS011;2800;49.528;8.666;2022-07-23T11:59:49;13.83;;;8.93;;
5553;SDS011;2800;49.528;8.666;2022-07-23T12:02:19;11.43;;;8.73;;
5553;SDS011;2800;49.528;8.666;2022-07-23T12:04:46;10.80;;;8.20;;
5553;SDS011;2800;49.528;8.666;2022-07-23T12:07:26;13.10;;;9.97;;
5553;SDS011;2800;49.528;8.666;2022-07-23T12:09:56;10.90;;;8.23;;
5553;SDS011;2800;49.528;8.666;2022-07-23T12:12:47;14.30;;;10.90;;
5553;SDS011;2800;49.528;8.666;2022-07-23T12:15:18;12.13;;;8.67;;
5553;SDS011;2800;49.528;8.666;2022-07-23T12:17:47;11.70;;;8.80;;
5553;SDS011;2800;49.528;8.666;2022-07-23T12:20:21;14.80;;;9.27;;
5553;SDS011;2800;49.528;8.666;2022-07-23T12:22:49;14.50;;;8.70;;
5553;SDS011;2800;49.528;8.666;2022-07-23T12:25:18;11.80;;;8.73;;
5553;SDS011;2800;49.528;8.666;2022-07-23T12:27:45;10.30;;;8.33;;
5553;SDS011;2800;49.528;8.666;2022-07-23T12:32:47;12.40;;;9.00;;
5553;SDS011;2800;49.528;8.666;2022-07-23T12:35:15;10.60;;;8.57;;
5553;SDS011;2800;49.528;8.666;2022-07-23T12:37:41;10.53;;;8.43;;
5553;SDS011;2800;49.528;8.666;2022-07-23T12:42:47;11.23;;;8.50;;
5553;SDS011;2800;49.528;8.666;2022-07-23T12:45:14;15.60;;;8.23;;
5553;SDS011;2800;49.528;8.666;2022-07-23T12:55:35;18.50;;;8.47;;
5553;SDS011;2800;49.528;8.666;2022-07-23T12:58:11;12.60;;;9.07;;
5553;SDS011;2800;49.528;8.666;2022-07-23T13:00:53;15.93;;;8.93;;
5553;SDS011;2800;49.528;8.666;2022-07-23T13:03:24;11.33;;;8.47;;
5553;SDS011;2800;49.528;8.666;2022-07-23T13:05:53;12.50;;;9.10;;
5553;SDS011;2800;49.528;8.666;2022-07-23T13:08:19;14.20;;;8.53;;
5553;SDS011;2800;49.528;8.666;2022-07-23T13:10:44;13.13;;;8.90;;
5553;SDS011;2800;49.528;8.666;2022-07-23T13:13:13;17.63;;;8.70;;
5553;SDS011;2800;49.528;8.666;2022-07-23T13:15:44;11.83;;;8.43;;
5553;SDS011;2800;49.528;8.666;2022-07-23T13:18:10;12.17;;;8.00;;
5553;SDS011;2800;49.528;8.666;2022-07-23T13:20:36;13.27;;;8.00;;
5553;SDS011;2800;49.528;8.666;2022-07-23T13:23:03;13.43;;;7.77;;
5553;SDS011;2800;49.528;8.666;2022-07-23T13:25:30;9.33;;;7.87;;
5553;SDS011;2800;49.528;8.666;2022-07-23T13:27:56;9.83;;;7.60;;
5553;SDS011;2800;49.528;8.666;2022-07-23T13:30:21;10.70;;;8.33;;
5553;SDS011;2800;49.528;8.666;2022-07-23T13:32:47;12.37;;;8.37;;
5553;SDS011;2800;49.528;8.666;2022-07-23T13:35:13;12.43;;;8.50;;
5553;SDS011;2800;49.528;8.666;2022-07-23T13:37:39;13.07;;;8.60;;
5553;SDS011;2800;49.528;8.666;2022-07-23T13:40:05;10.27;;;8.30;;
5553;SDS011;2800;49.528;8.666;2022-07-23T13:42:31;14.23;;;8.57;;
5553;SDS011;2800;49.528;8.666;2022-07-23T13:44:56;10.87;;;8.70;;
5553;SDS011;2800;49.528;8.666;2022-07-23T13:47:22;13.70;;;8.97;;
5553;SDS011;2800;49.528;8.666;2022-07-23T13:49:47;13.00;;;8.73;;
5553;SDS011;2800;49.528;8.666;2022-07-23T13:52:13;12.47;;;9.40;;
5553;SDS011;2800;49.528;8.666;2022-07-23T13:54:39;10.83;;;8.73;;
5553;SDS011;2800;49.528;8.666;2022-07-23T13:57:04;14.17;;;8.60;;
5553;SDS011;2800;49.528;8.666;2022-07-23T13:59:30;12.23;;;8.43;;
5553;SDS011;2800;49.528;8.666;2022-07-23T14:01:55;15.10;;;9.10;;
5553;SDS011;2800;49.528;8.666;2022-07-23T14:04:21;12.00;;;7.93;;
5553;SDS011;2800;49.528;8.666;2022-07-23T14:06:47;10.77;;;7.73;;
5553;SDS011;2800;49.528;8.666;2022-07-23T14:09:13;10.23;;;8.07;;
5553;SDS011;2800;49.528;8.666;2022-07-23T14:11:38;12.70;;;7.63;;
5553;SDS011;2800;49.528;8.666;2022-07-23T14:14:04;11.33;;;8.20;;
5553;SDS011;2800;49.528;8.666;2022-07-23T14:16:30;11.50;;;7.97;;
5553;SDS011;2800;49.528;8.666;2022-07-23T14:18:55;16.70;;;7.70;;
5553;SDS011;2800;49.528;8.666;2022-07-23T14:21:21;12.30;;;8.10;;
5553;SDS011;2800;49.528;8.666;2022-07-23T14:23:47;13.43;;;8.17;;
5553;SDS011;2800;49.528;8.666;2022-07-23T14:26:12;10.87;;;7.63;;
5553;SDS011;2800;49.528;8.666;2022-07-23T14:28:38;11.10;;;8.07;;
5553;SDS011;2800;49.528;8.666;2022-07-23T14:31:04;10.90;;;7.43;;
5553;SDS011;2800;49.528;8.666;2022-07-23T14:33:29;13.90;;;7.77;;
5553;SDS011;2800;49.528;8.666;2022-07-23T14:35:55;10.50;;;8.00;;
5553;SDS011;2800;49.528;8.666;2022-07-23T14:38:20;12.17;;;8.43;;
5553;SDS011;2800;49.528;8.666;2022-07-23T14:40:46;13.90;;;8.00;;
5553;SDS011;2800;49.528;8.666;2022-07-23T14:43:11;11.83;;;8.13;;
5553;SDS011;2800;49.528;8.666;2022-07-23T14:45:37;10.43;;;7.87;;
5553;SDS011;2800;49.528;8.666;2022-07-23T14:48:03;10.40;;;8.27;;
5553;SDS011;2800;49.528;8.666;2022-07-23T14:50:28;14.17;;;8.53;;
5553;SDS011;2800;49.528;8.666;2022-07-23T14:52:54;13.10;;;8.33;;
5553;SDS011;2800;49.528;8.666;2022-07-23T14:55:20;11.40;;;8.23;;
5553;SDS011;2800;49.528;8.666;2022-07-23T14:57:45;11.80;;;7.77;;
5553;SDS011;2800;49.528;8.666;2022-07-23T15:00:11;12.50;;;7.43;;
5553;SDS011;2800;49.528;8.666;2022-07-23T15:02:37;11.37;;;8.50;;
5553;SDS011;2800;49.528;8.666;2022-07-23T15:05:03;11.10;;;7.67;;
5553;SDS011;2800;49.528;8.666;2022-07-23T15:07:29;14.70;;;8.30;;
5553;SDS011;2800;49.528;8.666;2022-07-23T15:09:55;10.43;;;7.70;;
5553;SDS011;2800;49.528;8.666;2022-07-23T15:12:21;12.33;;;8.17;;
5553;SDS011;2800;49.528;8.666;2022-07-23T15:14:47;10.40;;;8.30;;
5553;SDS011;2800;49.528;8.666;2022-07-23T15:17:13;10.90;;;8.27;;
5553;SDS011;2800;49.528;8.666;2022-07-23T15:19:38;14.30;;;8.20;;
5553;SDS011;2800;49.528;8.666;2022-07-23T15:22:04;10.20;;;8.33;;
5553;SDS011;2800;49.528;8.666;2022-07-23T15:24:29;13.13;;;8.50;;
5553;SDS011;2800;49.528;8.666;2022-07-23T15:26:55;10.80;;;8.07;;
5553;SDS011;2800;49.528;8.666;2022-07-23T15:29:21;9.97;;;8.03;;
5553;SDS011;2800;49.528;8.666;2022-07-23T15:31:47;11.53;;;7.97;;
5553;SDS011;2800;49.528;8.666;2022-07-23T15:34:13;12.57;;;7.57;;
5553;SDS011;2800;49.528;8.666;2022-07-23T15:36:38;11.20;;;7.80;;
5553;SDS011;2800;49.528;8.666;2022-07-23T15:39:04;10.20;;;8.30;;
5553;SDS011;2800;49.528;8.666;2022-07-23T15:41:30;11.43;;;8.40;;
5553;SDS011;2800;49.528;8.666;2022-07-23T15:43:56;11.70;;;8.07;;
5553;SDS011;2800;49.528;8.666;2022-07-23T15:46:22;13.93;;;8.03;;
5553;SDS011;2800;49.528;8.666;2022-07-23T15:48:48;12.73;;;7.60;;
5553;SDS011;2800;49.528;8.666;2022-07-23T15:51:15;11.50;;;7.97;;
5553;SDS011;2800;49.528;8.666;2022-07-23T15:53:40;12.10;;;7.97;;